Vandalia, Illinois
Current Conditions -  °F | °C
As of 8:35 AM on Tuesday 27 Jan 2015 (Local Time) from KSLO Reporting Station
Haze Haze  
Wind Chill: 28°   Ceiling: Unl
Heat Index: 35°   Visibility: 4mi
Dew Point: 31°   Wind: 8mph
Humidity: 88%   Direction: 340°NNW
Pressure: 30.08"   Gusts: NA
Location:  38.96°N, 89.1°W
Report Text: KSLO 271435Z AUTO 34007KT 4SM BR CLR 02/00 A3008 RMK AO2 T00151003
Loading
Personal Weather Stations






























Interactive Weather Map New forecast layout! Learn more

10-Day Weather Forecast

Advertisements
Track Severe Weather on mobile